Santa Rosa, CA (95405)

4:06 PM PST on December 21, 2014 (GMT -0800)
Annadel Heights | Change Station
CLOSE
Current Station
Personal Weather Station
Location: Santa Rosa, CA
Elevation: 340 ft
Nearby Weather Stations
Active Advisory: Coastal Flood Advisory

Elev 340 ft 38.43 °N, 122.66 °W | Updated 56 seconds ago

Mostly Cloudy
Mostly Cloudy
32.4 °F
Feels Like 32 °F
N
2.0
Wind Variable Wind from South
Gusts 2.5 mph

Today
High -- | Low -- °F
--% Chance of Precip.
Yesterday
High -- | Low -- °F
Precip. -- in
7:24 AM 4:53 PM
Waning Crescent, 0% visible
Pressure 30.23 in
Visibility 10.0 miles
Clouds Scattered Clouds 1300 ft
Mostly Cloudy 2000 ft
Mostly Cloudy 5000 ft
Windchill 32 °F
Dew Point -47 °F
Humidity 2%
Rainfall 0.00 in
Snow Depth Not available.
UV 0 out of 12
Pollen 3.40 out of 12
Air Quality Not available.
Flu Activity Not available.
METAR KSTS 212353Z 10004KT 10SM SCT013 BKN020 BKN050 18/16 A3024 RMK AO2 SLP236 T01830156 10189 20139 55002

More Conditions Fewer Conditions

Pressure 30.23 in
Visibility 10.0 miles
Clouds Scattered Clouds 1300 ft
Mostly Cloudy 2000 ft
Mostly Cloudy 5000 ft
Windchill 32 °F
Dew Point -47 °F
Humidity 2%
Rainfall 0.00 in
Snow Depth Not available.
UV 0 out of 12
Pollen 3.40 out of 12
Air Quality Not available.
Flu Activity Not available.
METAR KSTS 212353Z 10004KT 10SM SCT013 BKN020 BKN050 18/16 A3024 RMK AO2 SLP236 T01830156 10189 20139 55002

More Conditions Fewer Conditions

10-Day Weather Forecast

Almanac

Astronomy

Dec. 21, 2014 Rise Set
Actual Time
Civil Twilight
Nautical Twilight
Astronomical Twilight
Moon
Length of Visible Light
Length of Day
Tomorrow will be .
, % of the Moon is Illuminated

Today's Extremes

State Highs State Lows

Community

WunderPhotos

Upload Photos

1,779,509 photos uploaded!

WunderBlogs® & News

Nearby

Air Quality

  Air Quality AQ Index Pollutant
Not available.

Snow Depth

Station Depth Elevation

Earthquake Activity

City Distance Mag. Time & Date
Minimum magnitude displayed is 2.5.

Coastal Water Temperatures

Place Temperature

Nearby Weather Stations